createdAt,value
2023-11-21T00:02:29.406Z,8.10
2023-11-21T00:05:15.753Z,9.40
2023-11-21T00:08:01.287Z,7.90
2023-11-21T00:10:46.716Z,7.90
2023-11-21T00:13:36.362Z,8.10
2023-11-21T00:16:23.502Z,7.90
2023-11-21T00:19:09.247Z,8.00
2023-11-21T00:21:54.725Z,7.50
2023-11-21T00:24:41.086Z,7.50
2023-11-21T00:27:26.897Z,7.50
2023-11-21T00:30:13.289Z,7.20
2023-11-21T00:32:58.756Z,7.20
2023-11-21T00:35:44.457Z,7.20
2023-11-21T00:38:29.756Z,7.10
2023-11-21T00:41:15.698Z,7.20
2023-11-21T00:44:02.202Z,7.10
2023-11-21T00:46:47.859Z,8.20
2023-11-21T00:49:33.593Z,7.90
2023-11-21T00:52:19.027Z,7.30
2023-11-21T00:55:06.082Z,7.20
2023-11-21T00:57:51.904Z,7.30
2023-11-21T01:00:40.828Z,7.40
2023-11-21T01:03:26.428Z,7.40
2023-11-21T01:06:14.283Z,8.40
2023-11-21T01:09:01.124Z,7.40
2023-11-21T01:11:47.621Z,8.90
2023-11-21T01:14:33.474Z,7.60
2023-11-21T01:17:19.781Z,7.60
2023-11-21T01:20:12.448Z,7.50
2023-11-21T01:22:58.267Z,7.60
2023-11-21T01:25:43.902Z,7.60
2023-11-21T01:28:29.592Z,7.70
2023-11-21T01:31:15.268Z,7.50
2023-11-21T01:34:01.130Z,7.50
2023-11-21T01:36:47.977Z,7.50
2023-11-21T01:39:33.683Z,7.50
2023-11-21T01:42:19.775Z,7.70
2023-11-21T01:45:06.447Z,7.50
2023-11-21T01:47:54.310Z,7.60
2023-11-21T01:50:42.474Z,7.70
2023-11-21T01:53:28.188Z,7.90
2023-11-21T01:56:14.363Z,7.80
2023-11-21T01:58:59.860Z,7.70
2023-11-21T02:01:45.433Z,7.70
2023-11-21T02:04:31.484Z,7.70
2023-11-21T02:07:16.865Z,7.70
2023-11-21T02:10:02.644Z,7.70
2023-11-21T02:12:48.407Z,7.70
2023-11-21T02:15:34.149Z,8.90
2023-11-21T02:18:19.777Z,7.70
2023-11-21T02:21:06.256Z,7.60
2023-11-21T02:23:52.484Z,7.60
2023-11-21T02:26:37.956Z,7.60
2023-11-21T02:29:28.798Z,7.50
2023-11-21T02:32:14.273Z,7.70
2023-11-21T02:35:03.929Z,7.80
2023-11-21T02:37:56.352Z,7.70
2023-11-21T02:40:42.305Z,7.70
2023-11-21T02:43:27.821Z,7.80
2023-11-21T02:46:13.459Z,7.60
2023-11-21T02:48:59.802Z,8.60
2023-11-21T02:51:45.339Z,7.60
2023-11-21T02:54:30.890Z,7.70
2023-11-21T02:57:16.262Z,7.70
2023-11-21T03:00:01.704Z,8.00
2023-11-21T03:02:48.893Z,7.70
2023-11-21T03:05:36.722Z,7.80
2023-11-21T03:08:22.142Z,7.80
2023-11-21T03:11:07.879Z,7.80
2023-11-21T03:13:53.541Z,7.80
2023-11-21T03:16:39.681Z,7.90
2023-11-21T03:19:25.048Z,7.90
2023-11-21T03:22:10.976Z,8.00
2023-11-21T03:24:56.643Z,6.20
2023-11-21T03:27:42.074Z,8.70
2023-11-21T03:30:27.675Z,8.80
2023-11-21T03:33:13.622Z,8.10
2023-11-21T03:35:59.344Z,8.20
2023-11-21T03:38:45.035Z,8.10
2023-11-21T03:41:30.675Z,10.40
2023-11-21T03:44:16.470Z,8.20
2023-11-21T03:47:02.840Z,8.20
2023-11-21T03:49:48.228Z,8.40
2023-11-21T03:52:33.986Z,8.40
2023-11-21T03:55:19.303Z,9.30
2023-11-21T03:58:04.926Z,8.50
2023-11-21T04:00:50.633Z,9.40
2023-11-21T04:03:37.297Z,8.30
2023-11-21T04:06:22.742Z,8.50
2023-11-21T04:09:08.290Z,8.40
2023-11-21T04:11:54.147Z,8.10
2023-11-21T04:14:39.629Z,10.10
2023-11-21T04:17:25.368Z,10.10
2023-11-21T04:20:11.680Z,9.40
2023-11-21T04:22:57.481Z,8.40
2023-11-21T04:25:42.977Z,8.30
2023-11-21T04:28:28.894Z,8.50
2023-11-21T04:31:14.502Z,8.40
2023-11-21T04:34:00.549Z,8.40
2023-11-21T04:36:45.634Z,8.40
2023-11-21T04:39:31.305Z,8.40
2023-11-21T04:42:17.215Z,9.50
2023-11-21T04:45:02.673Z,8.30
2023-11-21T04:47:48.129Z,9.50
2023-11-21T04:50:33.571Z,8.40
2023-11-21T04:53:18.961Z,8.40
2023-11-21T04:56:06.276Z,8.30
2023-11-21T04:58:51.818Z,8.30
2023-11-21T05:01:37.861Z,8.30
2023-11-21T05:04:23.871Z,8.40
2023-11-21T05:07:09.703Z,8.20
2023-11-21T05:09:56.321Z,8.30
2023-11-21T05:12:43.045Z,8.20
2023-11-21T05:15:28.857Z,8.20
2023-11-21T05:18:17.177Z,8.20
2023-11-21T05:21:02.845Z,8.00
2023-11-21T05:23:48.469Z,7.80
2023-11-21T05:26:34.356Z,7.70
2023-11-21T05:29:19.888Z,7.70
2023-11-21T05:32:06.094Z,8.50
2023-11-21T05:34:52.048Z,7.70
2023-11-21T05:37:37.460Z,7.60
2023-11-21T05:40:23.791Z,9.00
2023-11-21T05:43:09.254Z,7.80
2023-11-21T05:45:54.940Z,7.90
2023-11-21T05:48:40.493Z,7.80
2023-11-21T05:51:26.175Z,7.90
2023-11-21T05:54:12.022Z,9.50
2023-11-21T05:56:57.405Z,8.00
2023-11-21T05:59:42.895Z,7.90
2023-11-21T06:02:28.516Z,7.90
2023-11-21T06:05:14.079Z,8.10
2023-11-21T06:08:02.551Z,8.00
2023-11-21T06:10:50.585Z,8.00
2023-11-21T06:13:36.129Z,8.00
2023-11-21T06:16:22.306Z,7.90
2023-11-21T06:19:07.872Z,8.00
2023-11-21T06:21:53.371Z,8.10
2023-11-21T06:24:39.351Z,8.10
2023-11-21T06:27:26.124Z,8.30
2023-11-21T06:30:12.961Z,8.30
2023-11-21T06:32:58.654Z,8.30
2023-11-21T06:35:44.047Z,9.20
2023-11-21T06:38:31.232Z,8.50
2023-11-21T06:41:16.627Z,9.50
2023-11-21T06:44:02.184Z,8.40
2023-11-21T06:46:47.757Z,8.50
2023-11-21T06:49:33.503Z,8.50
2023-11-21T06:52:22.281Z,8.40
2023-11-21T06:55:10.048Z,8.40
2023-11-21T06:57:55.612Z,8.50
2023-11-21T07:00:41.095Z,8.50
2023-11-21T07:03:27.429Z,8.50
2023-11-21T07:06:13.185Z,8.50
2023-11-21T07:08:59.700Z,8.80
2023-11-21T07:11:45.122Z,8.30
2023-11-21T07:14:30.660Z,8.00
2023-11-21T07:17:17.394Z,10.10
2023-11-21T07:20:03.949Z,8.50
2023-11-21T07:22:49.783Z,8.50
2023-11-21T07:25:35.491Z,8.40
2023-11-21T07:28:21.074Z,9.50
2023-11-21T07:31:06.783Z,8.60
2023-11-21T07:33:52.814Z,8.60
2023-11-21T07:36:38.145Z,8.30
2023-11-21T07:39:23.492Z,8.20
2023-11-21T07:42:08.849Z,8.10
2023-11-21T07:44:54.665Z,8.40
2023-11-21T07:47:40.888Z,8.20
2023-11-21T07:50:27.946Z,8.60
2023-11-21T07:53:13.282Z,8.30
2023-11-21T07:56:00.148Z,9.20
2023-11-21T07:58:46.137Z,8.10
2023-11-21T08:01:33.180Z,8.10
2023-11-21T08:04:19.948Z,9.30
2023-11-21T08:07:05.515Z,10.40
2023-11-21T08:09:51.231Z,8.50
2023-11-21T08:12:36.920Z,8.60
2023-11-21T08:15:22.407Z,9.90
2023-11-21T08:18:08.863Z,8.90
2023-11-21T08:20:56.230Z,9.60
2023-11-21T08:23:41.522Z,8.90
2023-11-21T08:26:27.185Z,9.00
2023-11-21T08:29:12.960Z,8.90
2023-11-21T08:31:58.828Z,8.80
2023-11-21T08:34:45.911Z,8.70
2023-11-21T08:37:32.422Z,8.70
2023-11-21T08:40:18.778Z,8.70
2023-11-21T08:43:05.819Z,10.00
2023-11-21T08:45:51.587Z,8.40
2023-11-21T08:48:37.710Z,8.50
2023-11-21T08:51:23.161Z,8.60
2023-11-21T08:54:13.023Z,8.90
2023-11-21T08:57:01.935Z,9.20
2023-11-21T08:59:47.259Z,8.90
2023-11-21T09:02:33.128Z,10.80
2023-11-21T09:05:19.085Z,9.20
2023-11-21T09:08:04.650Z,9.30
2023-11-21T09:10:50.068Z,9.30
2023-11-21T09:13:35.881Z,9.50
2023-11-21T09:16:21.544Z,9.70
2023-11-21T09:19:07.214Z,9.70
2023-11-21T09:21:52.778Z,10.90
2023-11-21T09:24:39.968Z,10.10
2023-11-21T09:27:28.754Z,9.90
2023-11-21T09:30:15.652Z,10.00
2023-11-21T09:33:01.946Z,11.10
2023-11-21T09:35:47.641Z,9.80
2023-11-21T09:38:32.964Z,9.90
2023-11-21T09:41:31.680Z,9.90
2023-11-21T09:44:21.201Z,9.70
2023-11-21T09:47:11.914Z,9.70
2023-11-21T09:50:02.255Z,11.60
2023-11-21T09:53:06.345Z,9.90
2023-11-21T09:55:53.682Z,9.50
2023-11-21T09:58:39.438Z,9.40
2023-11-21T10:01:27.428Z,9.30
2023-11-21T10:04:13.741Z,9.40
2023-11-21T10:06:59.628Z,10.00
2023-11-21T10:09:45.950Z,9.90
2023-11-21T10:12:33.681Z,9.40
2023-11-21T10:15:19.320Z,9.20
2023-11-21T10:18:10.633Z,9.60
2023-11-21T10:20:58.039Z,9.70
2023-11-21T10:23:44.851Z,9.80
2023-11-21T10:26:40.563Z,10.00
2023-11-21T10:29:36.740Z,10.10
2023-11-21T10:32:22.232Z,10.10
2023-11-21T10:35:11.431Z,10.00
2023-11-21T10:38:04.376Z,10.20
2023-11-21T10:40:51.115Z,11.00
2023-11-21T10:43:36.878Z,10.10
2023-11-21T10:46:22.672Z,10.10
2023-11-21T10:49:08.001Z,10.40
2023-11-21T10:51:55.138Z,10.40
2023-11-21T10:54:40.837Z,10.20
2023-11-21T10:57:26.940Z,10.30
2023-11-21T11:00:14.648Z,10.50
2023-11-21T11:03:01.862Z,10.50
2023-11-21T11:05:53.460Z,10.30
2023-11-21T11:08:40.600Z,10.20
2023-11-21T11:11:26.802Z,11.40
2023-11-21T11:14:14.112Z,10.60
2023-11-21T11:17:01.474Z,10.30
2023-11-21T11:19:48.518Z,10.30
2023-11-21T11:23:00.346Z,10.40
2023-11-21T11:26:04.849Z,10.80
2023-11-21T11:29:12.594Z,11.90
2023-11-21T11:32:27.045Z,12.90
2023-11-21T11:35:17.940Z,13.20
2023-11-21T11:38:04.083Z,14.10
2023-11-21T11:40:54.842Z,13.90
2023-11-21T11:43:46.006Z,13.70
2023-11-21T11:46:47.691Z,13.30
2023-11-21T11:49:33.452Z,12.80
2023-11-21T11:52:38.032Z,12.30
2023-11-21T11:55:25.855Z,12.50
2023-11-21T11:58:12.871Z,11.50
2023-11-21T12:00:59.564Z,11.10
2023-11-21T12:03:45.336Z,9.70
2023-11-21T12:06:36.952Z,10.50
2023-11-21T12:09:25.106Z,10.30
2023-11-21T12:12:10.734Z,11.10
2023-11-21T12:14:56.698Z,10.80
2023-11-21T12:17:44.733Z,10.10
2023-11-21T12:20:30.636Z,10.10
2023-11-21T12:23:16.445Z,9.90
2023-11-21T12:26:02.337Z,10.40
2023-11-21T12:28:57.096Z,10.10
2023-11-21T12:31:42.823Z,9.90
2023-11-21T12:34:28.297Z,10.00
2023-11-21T12:37:13.957Z,10.20
2023-11-21T12:39:59.559Z,9.90
2023-11-21T12:42:47.585Z,10.00
2023-11-21T12:45:33.167Z,10.00
2023-11-21T12:48:25.365Z,9.80
2023-11-21T12:51:12.401Z,9.80
2023-11-21T12:53:59.719Z,9.80
2023-11-21T12:56:48.818Z,10.70
2023-11-21T12:59:34.718Z,9.90
2023-11-21T13:02:20.279Z,10.50
2023-11-21T13:05:13.678Z,10.10
2023-11-21T13:08:04.384Z,10.10
2023-11-21T13:10:53.014Z,9.80
2023-11-21T13:13:43.697Z,9.70
2023-11-21T13:16:29.140Z,10.00
2023-11-21T13:19:15.383Z,9.70
2023-11-21T13:22:03.105Z,9.60
2023-11-21T13:24:49.045Z,10.00
2023-11-21T13:27:35.684Z,10.80
2023-11-21T13:30:27.492Z,9.60
2023-11-21T13:33:20.148Z,10.60
2023-11-21T13:36:11.462Z,9.80
2023-11-21T13:38:59.924Z,9.70
2023-11-21T13:41:49.407Z,9.70
2023-11-21T13:44:39.424Z,9.70
2023-11-21T13:47:30.520Z,10.10
2023-11-21T13:50:25.043Z,10.00
2023-11-21T13:53:23.770Z,10.10
2023-11-21T13:56:10.993Z,9.90
2023-11-21T13:58:56.848Z,10.00
2023-11-21T14:01:57.356Z,10.10
2023-11-21T14:04:55.719Z,10.10
2023-11-21T14:07:49.004Z,9.80
2023-11-21T14:10:41.396Z,10.10
2023-11-21T14:13:28.329Z,9.80
2023-11-21T14:16:15.212Z,9.90
2023-11-21T14:19:10.775Z,10.00
2023-11-21T14:21:57.125Z,10.70
2023-11-21T14:24:46.831Z,10.30
2023-11-21T14:27:34.491Z,10.40
2023-11-21T14:30:23.404Z,10.80
2023-11-21T14:33:09.775Z,10.90
2023-11-21T14:35:55.084Z,11.30
2023-11-21T14:38:40.677Z,11.70
2023-11-21T14:41:26.600Z,12.80
2023-11-21T14:44:13.465Z,12.00
2023-11-21T14:47:00.419Z,12.30
2023-11-21T14:49:57.460Z,12.50
2023-11-21T14:52:56.633Z,12.00
2023-11-21T14:55:57.984Z,11.90
2023-11-21T14:58:43.977Z,11.60
2023-11-21T15:01:47.339Z,11.70
2023-11-21T15:04:40.432Z,11.50
2023-11-21T15:07:28.520Z,10.80
2023-11-21T15:10:17.017Z,10.90
2023-11-21T15:13:03.953Z,10.50
2023-11-21T15:15:50.377Z,10.40
2023-11-21T15:18:37.131Z,10.30
2023-11-21T15:21:25.265Z,10.10
2023-11-21T15:24:12.096Z,9.90
2023-11-21T15:26:57.499Z,9.80
2023-11-21T15:29:43.987Z,9.80
2023-11-21T15:32:30.064Z,9.70
2023-11-21T15:35:16.153Z,10.00
2023-11-21T15:38:02.697Z,9.50
2023-11-21T15:40:48.875Z,9.40
2023-11-21T15:43:34.297Z,9.50
2023-11-21T15:46:20.705Z,9.40
2023-11-21T15:49:13.386Z,9.50
2023-11-21T15:52:00.803Z,9.30
2023-11-21T15:54:47.514Z,9.50
2023-11-21T15:57:33.070Z,9.00
2023-11-21T16:00:21.274Z,9.00
2023-11-21T16:03:06.894Z,9.00
2023-11-21T16:05:52.604Z,9.00
2023-11-21T16:08:38.157Z,8.90
2023-11-21T16:11:24.386Z,9.00
2023-11-21T16:14:09.845Z,9.00
2023-11-21T16:16:55.500Z,8.90
2023-11-21T16:19:43.337Z,8.90
2023-11-21T16:22:29.370Z,9.00
2023-11-21T16:25:15.311Z,9.00
2023-11-21T16:28:05.202Z,8.90
2023-11-21T16:30:54.086Z,10.90
2023-11-21T16:33:40.215Z,8.90
2023-11-21T16:36:25.713Z,9.70
2023-11-21T16:39:14.557Z,9.20
2023-11-21T16:41:59.871Z,9.20
2023-11-21T16:44:45.413Z,9.10
2023-11-21T16:47:33.344Z,9.10
2023-11-21T16:50:19.462Z,9.90
2023-11-21T16:53:05.207Z,9.00
2023-11-21T16:55:50.745Z,9.10
2023-11-21T16:58:37.208Z,8.90
2023-11-21T17:01:22.966Z,9.00
2023-11-21T17:04:09.877Z,9.00
2023-11-21T17:06:55.154Z,9.00
2023-11-21T17:09:41.073Z,11.00
2023-11-21T17:12:28.818Z,9.00
2023-11-21T17:15:14.388Z,9.00
2023-11-21T17:18:02.416Z,9.10
2023-11-21T17:20:47.883Z,9.50
2023-11-21T17:23:36.051Z,9.60
2023-11-21T17:26:21.567Z,9.40
2023-11-21T17:29:07.792Z,9.00
2023-11-21T17:31:53.691Z,9.00
2023-11-21T17:34:40.491Z,9.10
2023-11-21T17:37:46.204Z,9.10
2023-11-21T17:40:31.502Z,9.10
2023-11-21T17:43:18.442Z,9.00
2023-11-21T17:46:04.173Z,10.80
2023-11-21T17:48:53.570Z,9.00
2023-11-21T17:51:40.465Z,9.50
2023-11-21T17:54:26.125Z,9.00
2023-11-21T17:57:13.083Z,9.00
2023-11-21T17:59:58.995Z,8.80
2023-11-21T18:02:44.401Z,10.50
2023-11-21T18:05:29.767Z,8.60
2023-11-21T18:08:15.946Z,8.50
2023-11-21T18:11:02.513Z,8.50
2023-11-21T18:13:48.394Z,8.70
2023-11-21T18:16:33.884Z,8.60
2023-11-21T18:19:20.452Z,8.60
2023-11-21T18:22:07.054Z,10.40
2023-11-21T18:24:58.076Z,8.40
2023-11-21T18:27:44.140Z,8.40
2023-11-21T18:30:29.510Z,8.50
2023-11-21T18:33:15.326Z,8.60
2023-11-21T18:36:00.991Z,8.50
2023-11-21T18:38:47.083Z,8.50
2023-11-21T18:41:33.743Z,8.60
2023-11-21T18:44:19.619Z,8.60
2023-11-21T18:47:05.961Z,8.50
2023-11-21T18:49:51.301Z,8.50
2023-11-21T18:52:36.936Z,9.90
2023-11-21T18:55:22.869Z,10.30
2023-11-21T18:58:08.569Z,8.20
2023-11-21T19:00:54.526Z,8.20
2023-11-21T19:03:43.284Z,8.20
2023-11-21T19:06:28.825Z,8.20
2023-11-21T19:09:14.689Z,9.40
2023-11-21T19:12:00.592Z,8.70
2023-11-21T19:14:47.394Z,8.20
2023-11-21T19:17:33.781Z,8.20
2023-11-21T19:20:19.699Z,8.30
2023-11-21T19:23:04.990Z,8.40
2023-11-21T19:25:50.565Z,9.20
2023-11-21T19:28:35.956Z,11.30
2023-11-21T19:31:22.154Z,8.60
2023-11-21T19:34:07.757Z,8.20
2023-11-21T19:36:53.325Z,8.10
2023-11-21T19:39:38.656Z,9.30
2023-11-21T19:42:25.415Z,8.30
2023-11-21T19:45:11.277Z,8.30
2023-11-21T19:47:56.862Z,8.30
2023-11-21T19:50:43.117Z,11.20
2023-11-21T19:53:28.588Z,8.20
2023-11-21T19:56:14.967Z,8.70
2023-11-21T19:59:00.459Z,8.10
2023-11-21T20:01:46.215Z,8.00
2023-11-21T20:04:31.748Z,9.10
2023-11-21T20:07:22.320Z,8.00
2023-11-21T20:10:08.992Z,9.30
2023-11-21T20:12:58.857Z,8.00
2023-11-21T20:15:45.376Z,8.00
2023-11-21T20:18:31.900Z,8.20
2023-11-21T20:21:21.853Z,10.00
2023-11-21T20:24:07.811Z,8.20
2023-11-21T20:26:54.411Z,8.30
2023-11-21T20:29:43.018Z,8.10
2023-11-21T20:32:28.705Z,8.50
2023-11-21T20:35:14.508Z,8.30
2023-11-21T20:37:59.872Z,8.20
2023-11-21T20:40:45.619Z,9.80
2023-11-21T20:43:31.238Z,8.20
2023-11-21T20:46:16.936Z,8.20
2023-11-21T20:49:02.643Z,8.00
2023-11-21T20:51:48.202Z,8.00
2023-11-21T20:54:33.474Z,8.10
2023-11-21T20:57:19.281Z,8.00
2023-11-21T21:00:11.286Z,8.00
2023-11-21T21:02:57.616Z,8.00
2023-11-21T21:05:43.193Z,8.00
2023-11-21T21:08:28.621Z,8.10
2023-11-21T21:11:18.628Z,8.10
2023-11-21T21:14:04.007Z,8.10
2023-11-21T21:16:49.809Z,8.40
2023-11-21T21:19:35.351Z,11.40
2023-11-21T21:22:20.838Z,8.30
2023-11-21T21:25:07.612Z,8.30
2023-11-21T21:27:54.928Z,8.20
2023-11-21T21:30:43.100Z,8.20
2023-11-21T21:33:28.875Z,8.20
2023-11-21T21:36:14.972Z,8.90
2023-11-21T21:39:02.284Z,9.50
2023-11-21T21:41:47.850Z,8.20
2023-11-21T21:44:34.765Z,8.50
2023-11-21T21:47:20.253Z,8.30
2023-11-21T21:50:06.596Z,8.00
2023-11-21T21:52:52.264Z,8.10
2023-11-21T21:55:38.262Z,9.50
2023-11-21T21:58:24.024Z,8.00
2023-11-21T22:01:09.802Z,8.00
2023-11-21T22:03:56.811Z,8.00
2023-11-21T22:06:42.971Z,7.90
2023-11-21T22:09:28.609Z,9.80
2023-11-21T22:12:14.126Z,7.90
2023-11-21T22:14:59.804Z,8.00
2023-11-21T22:17:45.266Z,7.90
2023-11-21T22:20:30.620Z,7.90
2023-11-21T22:23:16.353Z,7.90
2023-11-21T22:26:02.010Z,7.80
2023-11-21T22:28:47.494Z,7.80
2023-11-21T22:31:32.917Z,7.80
2023-11-21T22:34:20.161Z,8.40
2023-11-21T22:37:06.146Z,7.80
2023-11-21T22:39:52.691Z,7.70
2023-11-21T22:42:38.030Z,7.80
2023-11-21T22:45:24.029Z,7.70
2023-11-21T22:48:10.169Z,7.70
2023-11-21T22:50:55.846Z,10.70
2023-11-21T22:53:41.281Z,8.20
2023-11-21T22:56:30.125Z,7.50
2023-11-21T22:59:16.203Z,8.30
2023-11-21T23:02:01.763Z,7.50
2023-11-21T23:04:47.287Z,7.50
2023-11-21T23:07:32.584Z,7.40
2023-11-21T23:10:19.092Z,7.50
2023-11-21T23:13:04.528Z,7.40
2023-11-21T23:15:53.718Z,9.60
2023-11-21T23:18:40.413Z,8.10
2023-11-21T23:21:29.960Z,7.80
2023-11-21T23:24:20.577Z,7.50
2023-11-21T23:27:07.290Z,7.50
2023-11-21T23:29:55.506Z,7.60
2023-11-21T23:32:42.848Z,9.30
2023-11-21T23:35:28.389Z,7.30
2023-11-21T23:38:14.434Z,8.00
2023-11-21T23:41:00.219Z,7.70
2023-11-21T23:43:45.852Z,7.70
2023-11-21T23:46:34.892Z,7.70
2023-11-21T23:49:20.625Z,7.70
2023-11-21T23:52:06.739Z,7.70
2023-11-21T23:54:52.610Z,7.70
2023-11-21T23:57:38.084Z,7.60
